Time;durP1;ratioP1;P1;durP2;ratioP2;P2;SDS_P1;SDS_P2;PMS_P1;PMS_P2;Temp;Humidity;BMP_temperature;BMP_pressure;BME280_temperature;BME280_humidity;BME280_pressure;Samples;Min_cycle;Max_cycle;Signal;HPM_P1;HPM_P2
2023/05/08 00:02:19;;;;;;;8.48;6.35;;;;;;;15.11;51.39;95142.13;5043408;28;20041;-72
2023/05/08 00:04:44;;;;;;;9.55;5.85;;;;;;;15.10;51.50;95148.16;5045564;28;20246;-74
2023/05/08 00:07:09;;;;;;;11.55;6.80;;;;;;;15.09;51.70;95143.84;5045379;28;20025;-72
2023/05/08 00:09:35;;;;;;;9.15;6.45;;;;;;;15.05;52.13;95143.22;5043386;28;20037;-72
2023/05/08 00:12:00;;;;;;;6.65;6.00;;;;;;;15.03;51.88;95146.47;5042755;28;20111;-72
2023/05/08 00:14:25;;;;;;;9.05;6.25;;;;;;;15.01;52.00;95151.66;5042746;28;20033;-72
2023/05/08 00:16:51;;;;;;;10.60;6.82;;;;;;;14.99;52.14;95150.59;5044923;28;20516;-72
2023/05/08 00:19:16;;;;;;;6.75;5.65;;;;;;;14.92;52.40;95140.59;5043821;28;20021;-72
2023/05/08 00:21:42;;;;;;;5.40;3.78;;;;;;;14.79;50.82;95151.03;5044985;28;20118;-72
2023/05/08 00:24:07;;;;;;;7.05;4.95;;;;;;;14.81;51.41;95146.59;5043078;28;20064;-73
2023/05/08 00:26:33;;;;;;;5.88;4.35;;;;;;;14.80;50.84;95155.34;5043786;28;20110;-73
2023/05/08 00:28:58;;;;;;;8.35;5.68;;;;;;;14.78;51.78;95161.31;5042413;28;20041;-73
2023/05/08 00:31:23;;;;;;;7.15;4.80;;;;;;;14.71;51.40;95156.09;5042970;28;20029;-72
2023/05/08 00:33:49;;;;;;;6.03;4.70;;;;;;;14.70;51.69;95162.09;5042912;28;20033;-73
2023/05/08 00:36:14;;;;;;;7.13;5.60;;;;;;;14.69;52.13;95155.78;5042527;28;20481;-73
2023/05/08 00:38:40;;;;;;;7.90;5.70;;;;;;;14.65;52.26;95157.94;5044957;28;20021;-72
2023/05/08 00:41:05;;;;;;;7.40;5.72;;;;;;;14.64;52.34;95153.63;5041683;28;20134;-72
2023/05/08 00:43:32;;;;;;;8.25;5.97;;;;;;;14.63;52.42;95145.78;5044493;28;20025;-72
2023/05/08 00:45:59;;;;;;;6.70;5.63;;;;;;;14.58;52.37;95155.47;5043518;28;20021;-73
2023/05/08 00:48:27;;;;;;;7.65;6.22;;;;;;;14.57;52.52;95153.94;5043098;28;20084;-71
2023/05/08 00:50:53;;;;;;;7.38;5.65;;;;;;;14.51;52.51;95159.28;5042631;28;20031;-72
2023/05/08 00:53:19;;;;;;;8.25;6.90;;;;;;;14.49;52.73;95158.97;5042519;28;20017;-72
2023/05/08 00:55:45;;;;;;;7.40;5.65;;;;;;;14.46;53.04;95153.56;5042984;28;20029;-71
2023/05/08 00:58:11;;;;;;;10.40;6.35;;;;;;;14.44;53.17;95162.28;5043256;28;20117;-71
2023/05/08 01:00:38;;;;;;;10.07;6.22;;;;;;;14.41;53.33;95160.44;5044206;28;20044;-72
2023/05/08 01:03:03;;;;;;;8.82;6.20;;;;;;;14.35;53.15;95160.28;5025837;28;20239;-73
2023/05/08 01:05:29;;;;;;;9.70;6.40;;;;;;;14.33;53.25;95167.47;5046083;28;20083;-72
2023/05/08 01:07:55;;;;;;;7.82;5.88;;;;;;;14.32;53.50;95165.94;5045986;28;20060;-73
2023/05/08 01:10:20;;;;;;;10.07;7.13;;;;;;;14.28;53.73;95168.88;5047702;28;20028;-72
2023/05/08 01:12:54;;;;;;;7.75;6.38;;;;;;;14.26;53.63;95170.53;5047704;28;20033;-72
2023/05/08 01:15:35;;;;;;;11.20;6.63;;;;;;;14.22;53.53;95169.91;5046930;28;20275;-71
2023/05/08 01:18:18;;;;;;;9.18;6.60;;;;;;;14.18;53.64;95178.34;5047503;28;20032;-72
2023/05/08 01:20:45;;;;;;;;;;;;;;;14.15;53.82;95172.94;5046040;28;20025;-72
2023/05/08 01:23:32;;;;;;;9.57;5.57;;;;;;;14.08;53.77;95172.00;5046452;28;20433;-71
2023/05/08 01:26:27;;;;;;;7.40;6.00;;;;;;;14.02;54.01;95168.28;5046518;28;20074;-71
2023/05/08 01:29:08;;;;;;;8.73;6.30;;;;;;;14.02;54.22;95173.03;5046348;28;20029;-73
2023/05/08 01:32:09;;;;;;;9.18;6.25;;;;;;;13.98;54.25;95164.88;5047917;28;20057;-73
2023/05/08 01:34:38;;;;;;;7.68;5.90;;;;;;;13.91;54.32;95165.16;5044905;28;20562;-73
2023/05/08 01:37:06;;;;;;;8.82;5.95;;;;;;;13.91;54.27;95165.16;5027439;28;20040;-73
2023/05/08 01:39:44;;;;;;;8.18;5.90;;;;;;;13.79;54.58;95164.03;5028957;28;20029;-73
2023/05/08 01:42:31;;;;;;;8.02;5.80;;;;;;;13.72;54.57;95158.00;5027261;28;20036;-72
2023/05/08 01:45:00;;;;;;;7.47;5.93;;;;;;;13.74;54.75;95158.31;5028462;28;20467;-72
2023/05/08 01:47:28;;;;;;;9.63;6.15;;;;;;;13.74;54.79;95152.78;5028052;28;20037;-72
2023/05/08 01:50:07;;;;;;;7.72;5.88;;;;;;;13.75;54.71;95154.31;5027397;28;20053;-73
2023/05/08 01:52:44;;;;;;;7.97;5.70;;;;;;;13.75;54.63;95160.63;5028866;28;20025;-73
2023/05/08 01:55:19;;;;;;;7.82;6.03;;;;;;;13.72;54.69;95146.97;5026974;28;20132;-72
2023/05/08 01:57:50;;;;;;;8.85;6.30;;;;;;;13.71;54.87;95154.47;5029869;28;20060;-72
2023/05/08 02:00:18;;;;;;;7.85;6.13;;;;;;;13.70;54.75;95160.44;5027746;28;20020;-72
2023/05/08 02:02:44;;;;;;;9.43;5.80;;;;;;;13.68;54.58;95160.13;5026936;28;20444;-72
2023/05/08 02:05:11;;;;;;;7.80;5.95;;;;;;;13.65;54.84;95148.00;5045176;28;20032;-72
2023/05/08 02:07:37;;;;;;;9.35;6.43;;;;;;;13.66;55.01;95157.81;5026478;28;20482;-72
2023/05/08 02:10:04;;;;;;;7.88;6.38;;;;;;;13.66;54.82;95157.06;5046393;28;20128;-72
2023/05/08 02:12:30;;;;;;;7.95;6.88;;;;;;;13.64;55.09;95157.47;5045447;28;20120;-72
2023/05/08 02:14:58;;;;;;;9.38;6.22;;;;;;;13.62;55.15;95159.16;5045709;28;20100;-73
2023/05/08 02:17:23;;;;;;;7.35;6.05;;;;;;;13.61;55.18;95157.63;5043783;28;20163;-72
2023/05/08 02:19:50;;;;;;;7.95;5.75;;;;;;;13.57;55.29;95168.81;5045184;28;20021;-72
2023/05/08 02:22:15;;;;;;;9.55;6.60;;;;;;;13.60;55.42;95164.38;5046813;28;20025;-73
2023/05/08 02:24:41;;;;;;;9.45;6.30;;;;;;;13.57;55.48;95165.28;5044208;28;20471;-72
2023/05/08 02:27:08;;;;;;;8.63;6.43;;;;;;;13.58;55.51;95159.28;5029412;28;20032;-72
2023/05/08 02:29:34;;;;;;;8.43;6.38;;;;;;;13.57;55.53;95165.28;5043539;28;20040;-72
2023/05/08 02:32:02;;;;;;;9.25;6.40;;;;;;;13.55;55.51;95163.75;5045816;28;20467;-72
2023/05/08 02:34:28;;;;;;;13.07;7.03;;;;;;;13.54;55.56;95164.19;5044262;28;20186;-71
2023/05/08 02:36:54;;;;;;;7.03;6.03;;;;;;;13.53;55.33;95165.38;5044879;28;20047;-72
2023/05/08 02:39:20;;;;;;;8.30;5.72;;;;;;;13.51;55.31;95167.84;5045109;28;20025;-72
2023/05/08 02:41:46;;;;;;;12.82;7.30;;;;;;;13.46;55.55;95171.94;5044195;28;20033;-72
2023/05/08 02:44:11;;;;;;;10.45;6.65;;;;;;;13.43;55.63;95163.81;5045495;28;20090;-72
2023/05/08 02:46:48;;;;;;;9.38;6.57;;;;;;;13.43;55.30;95170.09;5045223;28;20035;-72
2023/05/08 02:49:28;;;;;;;10.98;6.10;;;;;;;13.42;55.30;95174.09;5045500;28;20040;-72
2023/05/08 02:51:57;;;;;;;7.90;6.65;;;;;;;13.40;55.44;95175.75;5047583;28;20240;-71
2023/05/08 02:54:35;;;;;;;8.77;6.32;;;;;;;13.39;55.66;95172.22;5046699;28;20041;-72
2023/05/08 02:57:07;;;;;;;13.13;8.75;;;;;;;13.38;55.58;95172.66;5045247;28;20074;-71
2023/05/08 02:59:40;;;;;;;9.50;6.28;;;;;;;13.36;55.61;95166.81;5043296;28;20569;-71
2023/05/08 03:02:13;;;;;;;10.88;6.68;;;;;;;13.34;55.71;95170.03;5028836;28;20032;-71
2023/05/08 03:04:50;;;;;;;8.70;6.93;;;;;;;13.33;55.91;95164.97;5043587;28;20107;-72
2023/05/08 03:07:18;;;;;;;12.57;6.63;;;;;;;13.28;55.76;95172.59;5028000;28;20043;-73
2023/05/08 03:09:48;;;;;;;10.45;6.50;;;;;;;13.27;55.83;95168.28;5044287;28;20025;-73
2023/05/08 03:12:16;;;;;;;7.80;6.10;;;;;;;13.29;55.98;95174.13;5044859;28;20458;-72
2023/05/08 03:14:52;;;;;;;7.88;6.63;;;;;;;13.27;55.89;95173.81;5044641;28;20025;-73
2023/05/08 03:17:17;;;;;;;11.75;6.78;;;;;;;13.12;55.98;95142.38;5044614;28;20025;-72
2023/05/08 03:19:46;;;;;;;9.05;6.57;;;;;;;13.25;55.78;95172.72;5044513;28;20024;-72
2023/05/08 03:22:13;;;;;;;9.20;6.90;;;;;;;13.24;55.67;95173.94;5043417;28;20108;-72
2023/05/08 03:24:39;;;;;;;11.90;6.32;;;;;;;13.24;55.88;95171.94;5043913;28;20203;-72
2023/05/08 03:27:05;;;;;;;10.68;7.28;;;;;;;13.21;55.76;95178.38;5044255;28;20120;-73
2023/05/08 03:29:32;;;;;;;9.55;6.30;;;;;;;13.21;55.66;95172.09;5043013;28;20025;-73
2023/05/08 03:31:59;;;;;;;9.52;6.78;;;;;;;13.22;55.78;95174.38;5044759;28;20095;-73
2023/05/08 03:34:25;;;;;;;10.85;6.35;;;;;;;13.21;55.59;95189.41;5042856;28;20094;-72
2023/05/08 03:36:51;;;;;;;9.90;6.63;;;;;;;13.20;55.66;95178.78;5045672;28;20025;-73
2023/05/08 03:39:16;;;;;;;7.47;6.13;;;;;;;13.22;56.04;95179.13;5043185;28;20025;-71
2023/05/08 03:41:42;;;;;;;11.60;6.45;;;;;;;13.25;55.81;95181.78;5043582;28;20487;-72
2023/05/08 03:44:07;;;;;;;8.35;6.47;;;;;;;13.25;55.79;95178.25;5043696;28;20025;-72
2023/05/08 03:46:33;;;;;;;10.55;6.38;;;;;;;13.23;55.77;95186.19;5028420;28;20021;-72
2023/05/08 03:48:59;;;;;;;8.80;6.25;;;;;;;13.23;55.86;95186.97;5044211;28;20033;-72
2023/05/08 03:51:32;;;;;;;12.90;6.53;;;;;;;13.24;55.72;95177.47;5026549;28;20039;-73
2023/05/08 03:53:57;;;;;;;10.57;6.47;;;;;;;13.26;55.65;95182.56;5045619;28;20048;-73
2023/05/08 03:56:23;;;;;;;10.07;5.75;;;;;;;13.27;55.59;95184.84;5043909;28;20029;-72
2023/05/08 03:59:02;;;;;;;9.25;6.22;;;;;;;13.31;55.65;95181.97;5045396;28;20021;-72
2023/05/08 04:01:48;;;;;;;7.93;6.07;;;;;;;13.36;56.03;95192.44;5043759;28;20049;-72
2023/05/08 04:04:19;;;;;;;9.60;6.70;;;;;;;13.39;55.99;95191.53;5042571;28;20096;-72
2023/05/08 04:06:51;;;;;;;12.38;6.15;;;;;;;13.38;55.63;95192.00;5045609;28;20033;-71
2023/05/08 04:09:26;;;;;;;10.45;6.25;;;;;;;13.40;55.60;95195.06;5043598;28;20029;-72
2023/05/08 04:11:57;;;;;;;10.88;5.90;;;;;;;13.47;55.74;95197.56;5043385;28;20052;-72
2023/05/08 04:14:25;;;;;;;10.82;5.78;;;;;;;13.51;55.50;95196.22;5044389;28;20356;-73
2023/05/08 04:16:52;;;;;;;9.25;6.13;;;;;;;13.57;55.45;95203.94;5042580;28;20071;-72
2023/05/08 04:19:27;;;;;;;12.55;6.80;;;;;;;13.63;55.55;95208.44;5043584;28;20032;-73
2023/05/08 04:21:57;;;;;;;10.60;5.93;;;;;;;13.68;55.27;95207.09;5041343;28;20029;-72
2023/05/08 04:24:24;;;;;;;13.73;7.53;;;;;;;13.71;55.14;95204.19;5027446;28;20032;-72
2023/05/08 04:26:50;;;;;;;9.05;6.38;;;;;;;13.77;54.86;95207.16;5042416;28;20167;-73
2023/05/08 04:29:16;;;;;;;8.32;6.20;;;;;;;13.82;54.90;95204.59;5043171;28;20047;-72
2023/05/08 04:31:42;;;;;;;10.25;6.43;;;;;;;13.87;55.15;95205.97;5043116;28;20048;-71
2023/05/08 04:34:08;;;;;;;8.85;6.38;;;;;;;13.92;55.08;95201.84;5043798;28;20072;-71
2023/05/08 04:36:34;;;;;;;8.60;5.93;;;;;;;13.97;55.10;95207.56;5043492;28;20495;-72
2023/05/08 04:38:59;;;;;;;10.45;7.32;;;;;;;14.00;55.19;95198.38;5041716;28;20123;-73
2023/05/08 04:41:25;;;;;;;9.30;6.45;;;;;;;14.06;54.99;95204.09;5050025;28;20081;-72
2023/05/08 04:43:51;;;;;;;9.15;6.45;;;;;;;14.11;55.16;95192.44;5047559;28;20025;-72
2023/05/08 04:46:16;;;;;;;13.48;7.72;;;;;;;14.16;55.12;95200.13;5030519;28;20039;-72
2023/05/08 04:48:41;;;;;;;10.57;7.32;;;;;;;14.22;55.19;95192.81;5047914;28;20100;-73
2023/05/08 04:51:07;;;;;;;13.68;7.90;;;;;;;14.29;55.01;95194.53;5048037;28;20017;-73
2023/05/08 04:53:32;;;;;;;12.82;7.28;;;;;;;14.33;54.79;95193.13;5030415;28;20066;-73
2023/05/08 04:55:58;;;;;;;9.32;7.60;;;;;;;14.40;54.70;95196.88;5046007;28;20021;-72
2023/05/08 04:58:23;;;;;;;11.95;7.65;;;;;;;14.46;54.68;95200.59;5049072;28;20044;-72
2023/05/08 05:00:49;;;;;;;9.95;6.82;;;;;;;14.52;54.44;95190.50;5045336;28;20029;-72
2023/05/08 05:03:14;;;;;;;12.98;7.45;;;;;;;14.56;54.50;95191.09;5048788;28;20137;-71
2023/05/08 05:05:39;;;;;;;10.60;8.07;;;;;;;14.58;54.48;95194.19;5046290;28;20048;-72
2023/05/08 05:08:05;;;;;;;10.10;7.32;;;;;;;14.60;54.07;95181.44;5048031;28;20049;-71
2023/05/08 05:10:30;;;;;;;11.95;7.55;;;;;;;14.63;53.95;95177.00;5046389;28;20017;-73
2023/05/08 05:12:56;;;;;;;12.38;7.20;;;;;;;14.72;53.72;95181.75;5047500;28;20109;-73
2023/05/08 05:15:21;;;;;;;9.85;7.22;;;;;;;14.68;53.62;95183.91;5029812;28;20039;-73
2023/05/08 05:17:47;;;;;;;10.40;7.88;;;;;;;14.75;53.38;95175.31;5045668;28;20124;-73
2023/05/08 05:20:12;;;;;;;11.60;8.20;;;;;;;14.80;53.38;95185.78;5048226;28;20036;-72
2023/05/08 05:22:38;;;;;;;9.93;7.15;;;;;;;14.85;53.04;95185.16;5046274;28;20121;-72
2023/05/08 05:25:04;;;;;;;9.85;7.13;;;;;;;14.83;52.33;95182.88;5048073;28;20049;-72
2023/05/08 05:27:30;;;;;;;8.25;6.20;;;;;;;14.92;52.00;95182.13;5029141;28;20060;-72
2023/05/08 05:29:56;;;;;;;9.38;6.57;;;;;;;14.98;51.86;95183.06;5046200;28;20052;-72
2023/05/08 05:32:21;;;;;;;8.57;6.13;;;;;;;15.00;51.62;95186.13;5045869;28;20482;-72
2023/05/08 05:34:47;;;;;;;11.10;6.10;;;;;;;14.92;51.53;95187.66;5045591;28;20104;-72
2023/05/08 05:37:12;;;;;;;8.20;5.82;;;;;;;14.99;51.28;95184.59;5050088;28;20570;-72
2023/05/08 05:39:37;;;;;;;6.63;5.68;;;;;;;15.06;51.29;95189.03;5046540;28;20031;-72
2023/05/08 05:42:03;;;;;;;9.23;5.82;;;;;;;15.12;51.18;95189.97;5048703;28;20021;-72
2023/05/08 05:44:28;;;;;;;10.45;6.20;;;;;;;15.12;50.99;95185.19;5046367;28;20098;-72
2023/05/08 05:46:54;;;;;;;9.80;5.55;;;;;;;15.07;51.13;95187.81;5047684;28;20036;-72
2023/05/08 05:49:19;;;;;;;8.13;5.13;;;;;;;15.00;51.29;95188.88;5046798;28;20040;-72
2023/05/08 05:51:44;;;;;;;10.18;5.90;;;;;;;15.09;51.18;95182.59;5045680;28;20074;-72
2023/05/08 05:54:10;;;;;;;8.02;5.38;;;;;;;15.18;51.19;95185.38;5045704;28;20120;-72
2023/05/08 05:56:36;;;;;;;8.80;6.15;;;;;;;15.26;50.91;95188.63;5046305;28;20029;-72
2023/05/08 05:59:01;;;;;;;8.98;5.38;;;;;;;15.35;50.55;95180.28;5046437;28;20032;-72
2023/05/08 06:01:27;;;;;;;9.80;5.18;;;;;;;15.39;50.55;95178.91;5045607;28;20099;-72
2023/05/08 06:03:53;;;;;;;7.97;4.97;;;;;;;15.41;50.27;95170.13;5047615;28;20025;-72
2023/05/08 06:06:19;;;;;;;9.63;5.00;;;;;;;15.44;50.20;95168.44;5046166;28;20078;-73
2023/05/08 06:08:44;;;;;;;6.57;4.70;;;;;;;15.44;50.16;95169.22;5047124;28;20116;-73
2023/05/08 06:11:10;;;;;;;8.00;4.85;;;;;;;15.55;49.83;95163.19;5030677;28;20028;-73
2023/05/08 06:13:38;;;;;;;6.93;4.65;;;;;;;15.62;49.88;95160.91;5044902;28;20064;-72
2023/05/08 06:16:04;;;;;;;6.55;4.97;;;;;;;15.70;49.86;95161.34;5045915;28;20431;-72
2023/05/08 06:18:30;;;;;;;11.00;4.40;;;;;;;15.74;49.67;95166.72;5045380;28;20036;-72
2023/05/08 06:20:58;;;;;;;7.25;4.53;;;;;;;15.79;49.44;95172.41;5047202;28;20487;-72
2023/05/08 06:23:24;;;;;;;9.25;4.80;;;;;;;15.94;49.03;95161.44;5043923;28;20025;-73
2023/05/08 06:25:50;;;;;;;5.78;4.63;;;;;;;16.03;48.88;95166.19;5045618;28;20029;-73
2023/05/08 06:28:15;;;;;;;6.72;4.85;;;;;;;16.05;48.79;95169.25;5044777;28;20021;-73
2023/05/08 06:30:41;;;;;;;19.48;9.38;;;;;;;16.01;48.88;95165.91;5045095;28;20077;-72
2023/05/08 06:33:08;;;;;;;6.97;4.93;;;;;;;16.05;48.57;95167.25;5048653;28;20100;-72
2023/05/08 06:35:33;;;;;;;7.97;4.85;;;;;;;16.22;48.35;95170.44;5045695;28;20025;-74
2023/05/08 06:37:58;;;;;;;8.18;5.20;;;;;;;16.36;47.85;95177.34;5046232;28;20032;-72
2023/05/08 06:40:25;;;;;;;7.40;4.72;;;;;;;16.50;47.62;95175.88;5043615;28;20087;-72
2023/05/08 06:42:50;;;;;;;10.32;5.47;;;;;;;16.64;47.49;95173.19;5045639;28;20463;-73
2023/05/08 06:45:15;;;;;;;8.15;4.57;;;;;;;16.81;46.92;95168.03;5044537;28;20055;-74
2023/05/08 06:47:41;;;;;;;6.60;4.65;;;;;;;16.95;46.61;95169.31;5046268;28;20476;-72
2023/05/08 06:50:07;;;;;;;8.52;4.50;;;;;;;17.04;46.51;95162.94;5044460;28;20262;-73
2023/05/08 06:52:32;;;;;;;5.70;4.20;;;;;;;17.12;45.99;95164.13;5045400;28;20075;-72
2023/05/08 06:54:57;;;;;;;6.28;4.38;;;;;;;17.20;45.80;95156.94;5046762;28;20514;-73
2023/05/08 06:57:25;;;;;;;6.82;4.90;;;;;;;17.33;45.56;95167.81;5043441;28;20071;-72
2023/05/08 06:59:51;;;;;;;7.10;5.07;;;;;;;17.34;45.77;95167.34;5045493;28;20032;-72
2023/05/08 07:02:17;;;;;;;5.93;4.70;;;;;;;17.44;45.14;95177.16;5044973;28;20041;-73
2023/05/08 07:04:45;;;;;;;7.30;4.53;;;;;;;17.44;44.96;95185.47;5044335;28;20025;-73
2023/05/08 07:07:12;;;;;;;8.63;5.28;;;;;;;17.55;45.01;95184.13;5045417;28;20040;-72
2023/05/08 07:09:38;;;;;;;6.20;4.63;;;;;;;17.72;44.52;95186.03;5043889;28;20029;-72
2023/05/08 07:12:04;;;;;;;10.18;5.30;;;;;;;17.79;44.44;95187.66;5044747;28;20128;-72
2023/05/08 07:14:29;;;;;;;7.53;5.05;;;;;;;17.75;44.71;95179.50;5043564;28;20100;-71
2023/05/08 07:16:54;;;;;;;6.22;4.68;;;;;;;17.75;44.85;95181.53;5048196;28;20381;-74
2023/05/08 07:19:20;;;;;;;7.78;4.78;;;;;;;17.85;44.45;95182.97;5043301;28;20024;-73
2023/05/08 07:21:46;;;;;;;6.90;4.80;;;;;;;17.92;44.45;95173.47;5044293;28;20117;-72
2023/05/08 07:24:11;;;;;;;7.13;4.72;;;;;;;18.05;43.79;95177.50;5044853;28;20029;-72
2023/05/08 07:26:36;;;;;;;7.07;4.57;;;;;;;18.09;44.08;95170.97;5047434;28;20021;-72
2023/05/08 07:29:02;;;;;;;5.63;4.45;;;;;;;18.14;44.04;95173.84;5045578;28;20500;-73
2023/05/08 07:31:27;;;;;;;9.23;4.45;;;;;;;18.24;43.87;95178.09;5045058;28;20024;-73
2023/05/08 07:33:53;;;;;;;8.43;4.53;;;;;;;18.42;43.56;95179.13;5046014;28;20025;-74
2023/05/08 07:36:18;;;;;;;7.03;4.07;;;;;;;18.51;43.35;95174.19;5026295;28;20035;-72
2023/05/08 07:38:44;;;;;;;7.78;5.15;;;;;;;18.55;42.99;95180.31;5044523;28;20033;-74
2023/05/08 07:41:09;;;;;;;10.57;5.63;;;;;;;18.68;42.82;95177.25;5026405;28;20427;-72
2023/05/08 07:43:35;;;;;;;6.65;4.07;;;;;;;18.79;43.10;95180.19;5045482;28;20036;-73
2023/05/08 07:46:01;;;;;;;10.23;4.60;;;;;;;19.02;42.40;95188.84;5044679;28;20484;-74
2023/05/08 07:48:27;;;;;;;8.07;4.60;;;;;;;19.03;42.23;95190.38;5043481;28;20075;-72
2023/05/08 07:50:52;;;;;;;6.28;4.22;;;;;;;19.07;41.80;95186.13;5043560;28;20060;-73
2023/05/08 07:53:17;;;;;;;6.82;4.07;;;;;;;19.24;41.62;95183.56;5044358;28;20588;-74
2023/05/08 07:55:43;;;;;;;7.78;4.10;;;;;;;19.25;42.27;95176.72;5045546;28;20021;-73
2023/05/08 07:58:08;;;;;;;6.47;4.25;;;;;;;19.35;42.07;95178.13;5042365;28;20025;-73
2023/05/08 08:00:34;;;;;;;8.05;5.13;;;;;;;19.57;41.80;95182.44;5044191;28;20021;-73
2023/05/08 08:02:59;;;;;;;10.13;5.78;;;;;;;19.56;42.32;95186.50;5043707;28;20076;-73
2023/05/08 08:05:25;;;;;;;9.05;4.68;;;;;;;19.61;42.26;95189.38;5043754;28;20455;-74
2023/05/08 08:07:50;;;;;;;7.90;4.35;;;;;;;19.76;41.56;95191.28;5026105;28;20025;-72
2023/05/08 08:10:16;;;;;;;7.65;4.18;;;;;;;19.99;41.30;95187.44;5044426;28;20057;-72
2023/05/08 08:12:41;;;;;;;8.07;4.60;;;;;;;20.17;41.13;95189.91;5043111;28;20021;-73
2023/05/08 08:15:07;;;;;;;6.82;4.90;;;;;;;20.19;40.71;95183.84;5042825;28;20466;-73
2023/05/08 08:17:32;;;;;;;8.38;5.03;;;;;;;20.27;40.58;95184.16;5043928;28;20021;-72
2023/05/08 08:19:58;;;;;;;9.07;4.60;;;;;;;20.39;40.06;95183.75;5043710;28;20017;-71
2023/05/08 08:22:24;;;;;;;8.00;4.45;;;;;;;20.46;40.52;95188.13;5049208;28;20120;-71
2023/05/08 08:24:49;;;;;;;6.70;4.25;;;;;;;20.61;40.59;95193.59;5044064;28;20113;-72
2023/05/08 08:27:15;;;;;;;7.72;3.97;;;;;;;20.53;40.44;95184.13;5044527;28;20039;-74
2023/05/08 08:29:40;;;;;;;6.75;4.78;;;;;;;20.82;40.38;95181.03;5042919;28;20422;-72
2023/05/08 08:32:05;;;;;;;10.40;4.75;;;;;;;20.91;39.96;95174.47;5042450;28;20021;-72
2023/05/08 08:34:34;;;;;;;8.65;4.30;;;;;;;21.00;39.87;95174.28;5044888;28;20027;-73
2023/05/08 08:36:59;;;;;;;6.05;4.25;;;;;;;21.14;40.21;95169.78;5043237;28;20021;-71
2023/05/08 08:39:25;;;;;;;6.32;4.57;;;;;;;21.17;39.74;95171.56;5045383;28;20058;-72
2023/05/08 08:41:50;;;;;;;8.13;4.95;;;;;;;20.96;39.72;95154.19;5041922;28;20488;-73
2023/05/08 08:44:17;;;;;;;9.18;4.20;;;;;;;20.98;40.16;95159.25;5044863;28;20056;-72
2023/05/08 08:46:51;;;;;;;6.18;4.78;;;;;;;21.03;39.99;95156.50;5042811;28;20032;-72
2023/05/08 08:49:26;;;;;;;7.90;4.88;;;;;;;21.18;40.22;95156.34;5043756;28;20025;-72
2023/05/08 08:51:55;;;;;;;7.20;5.43;;;;;;;21.33;39.92;95151.31;5026664;28;20033;-72
2023/05/08 08:54:23;;;;;;;8.80;5.30;;;;;;;21.37;40.09;95142.69;5041823;28;20051;-72
2023/05/08 08:56:50;;;;;;;7.88;4.43;;;;;;;21.41;40.00;95132.81;5044966;28;20017;-72
2023/05/08 08:59:17;;;;;;;7.90;5.03;;;;;;;21.51;39.87;95132.59;5025649;28;20036;-74
2023/05/08 09:01:46;;;;;;;5.47;4.00;;;;;;;21.56;39.67;95132.56;5042643;28;20072;-72
2023/05/08 09:04:12;;;;;;;9.23;5.03;;;;;;;21.37;39.81;95135.06;5042722;28;20502;-72
2023/05/08 09:06:37;;;;;;;6.97;4.15;;;;;;;21.43;40.21;95132.28;5043866;28;20021;-72
2023/05/08 09:09:03;;;;;;;7.95;4.45;;;;;;;21.37;40.30;95123.13;5043108;28;20109;-72
2023/05/08 09:11:29;;;;;;;5.70;4.40;;;;;;;21.27;40.29;95113.41;5043000;28;20353;-75
2023/05/08 09:13:55;;;;;;;6.45;4.15;;;;;;;21.28;40.48;95104.53;5043147;28;20127;-72
2023/05/08 09:16:22;;;;;;;6.47;4.25;;;;;;;21.26;40.75;95095.09;5044287;28;20049;-73
2023/05/08 09:18:48;;;;;;;9.20;4.97;;;;;;;21.34;40.72;95099.75;5043623;28;20475;-72
2023/05/08 09:21:13;;;;;;;6.55;4.63;;;;;;;21.33;40.70;95103.03;5043391;28;20072;-72
2023/05/08 09:23:56;;;;;;;8.25;5.63;;;;;;;21.38;40.84;95093.88;5042497;28;20069;-73
2023/05/08 09:26:34;;;;;;;6.32;5.03;;;;;;;21.41;41.01;95101.28;5046134;28;20035;-73
2023/05/08 09:29:26;;;;;;;7.55;4.07;;;;;;;21.52;41.15;95106.16;5046215;28;20449;-73
2023/05/08 09:31:52;;;;;;;7.53;5.35;;;;;;;21.52;40.92;95109.69;5047763;28;20068;-72
2023/05/08 09:34:28;;;;;;;7.68;4.80;;;;;;;21.40;40.57;95114.50;5045804;28;20443;-72
2023/05/08 09:36:54;;;;;;;6.97;4.38;;;;;;;21.37;40.78;95115.50;5045943;28;20021;-73
2023/05/08 09:39:24;;;;;;;7.78;4.57;;;;;;;21.43;40.69;95119.06;5047667;28;20028;-74
2023/05/08 09:42:16;;;;;;;5.80;4.47;;;;;;;21.43;40.84;95121.09;5044907;28;20021;-72
2023/05/08 09:44:49;;;;;;;8.10;4.70;;;;;;;21.45;41.12;95124.94;5047695;28;20559;-74
2023/05/08 09:47:19;;;;;;;7.18;4.85;;;;;;;21.36;41.22;95119.56;5046902;28;20025;-73
2023/05/08 09:50:05;;;;;;;10.88;5.68;;;;;;;21.49;40.81;95116.28;5045691;28;20021;-73
2023/05/08 09:52:32;;;;;;;6.60;5.00;;;;;;;21.59;41.09;95111.25;5046765;28;20495;-73
2023/05/08 09:55:02;;;;;;;9.43;5.22;;;;;;;21.57;41.31;95114.56;5044657;28;20820;-73
2023/05/08 09:57:29;;;;;;;10.43;5.13;;;;;;;21.87;41.00;95108.50;5046500;28;20502;-72
2023/05/08 10:00:12;;;;;;;10.77;5.13;;;;;;;21.93;40.48;95112.06;5045210;28;20037;-72
2023/05/08 10:02:41;;;;;;;6.30;5.57;;;;;;;21.97;40.31;95104.94;5045406;28;20072;-73
2023/05/08 10:05:24;;;;;;;7.82;4.90;;;;;;;22.10;40.22;95109.28;5045622;28;20341;-73
2023/05/08 10:07:50;;;;;;;6.22;5.25;;;;;;;22.16;39.96;95108.03;5045727;28;20132;-73
2023/05/08 10:10:25;;;;;;;8.45;5.18;;;;;;;22.32;39.72;95103.69;5046174;28;20135;-73
2023/05/08 10:12:52;;;;;;;7.32;4.97;;;;;;;22.27;39.98;95102.41;5046767;28;20094;-73
2023/05/08 10:15:17;;;;;;;6.55;4.20;;;;;;;22.52;39.62;95102.63;5045200;28;20471;-72
2023/05/08 10:17:50;;;;;;;9.13;4.97;;;;;;;22.70;39.36;95098.53;5045538;28;20051;-72
2023/05/08 10:20:17;;;;;;;9.95;5.95;;;;;;;22.74;39.17;95093.41;5045743;28;20035;-72
2023/05/08 10:22:43;;;;;;;7.38;5.47;;;;;;;22.90;39.23;95091.88;5045563;28;20033;-73
2023/05/08 10:25:12;;;;;;;9.02;5.68;;;;;;;22.98;39.02;95087.25;5043822;28;20107;-72
2023/05/08 10:27:44;;;;;;;8.85;5.18;;;;;;;23.09;38.89;95094.88;5046067;28;20029;-74
2023/05/08 10:30:12;;;;;;;6.03;4.67;;;;;;;23.29;38.32;95091.72;5044343;28;20071;-73
2023/05/08 10:32:42;;;;;;;6.90;6.10;;;;;;;23.26;38.04;95081.53;5045696;28;20264;-73
2023/05/08 10:35:09;;;;;;;8.35;5.53;;;;;;;23.30;37.36;95082.03;5046613;28;20065;-73
2023/05/08 10:37:36;;;;;;;8.27;4.78;;;;;;;23.44;37.37;95086.53;5043727;28;20047;-73
2023/05/08 10:40:04;;;;;;;6.03;4.38;;;;;;;23.59;37.72;95089.00;5046904;28;20029;-73
2023/05/08 10:42:30;;;;;;;7.43;4.18;;;;;;;24.05;37.10;95084.63;5043563;28;20025;-72
2023/05/08 10:44:56;;;;;;;7.55;5.03;;;;;;;24.35;36.48;95090.28;5045716;28;20537;-74
2023/05/08 10:47:39;;;;;;;6.90;4.43;;;;;;;24.59;36.03;95083.91;5045241;28;20025;-72
2023/05/08 10:50:15;;;;;;;8.20;5.22;;;;;;;24.90;35.14;95079.78;5046006;28;20522;-73
2023/05/08 10:52:53;;;;;;;6.68;4.35;;;;;;;25.22;35.01;95071.47;5045133;28;20052;-74
2023/05/08 10:55:19;;;;;;;4.85;4.10;;;;;;;25.42;33.98;95073.78;5044928;28;20025;-73
2023/05/08 10:58:03;;;;;;;6.80;4.28;;;;;;;25.68;34.22;95061.88;5046997;28;20076;-73
2023/05/08 11:00:50;;;;;;;6.60;4.38;;;;;;;26.03;33.25;95064.97;5045103;28;20073;-74
2023/05/08 11:03:16;;;;;;;4.43;3.85;;;;;;;26.18;32.78;95062.44;5045486;28;20033;-74
2023/05/08 11:05:46;;;;;;;5.45;4.18;;;;;;;26.40;31.65;95050.03;5046283;28;20091;-74
2023/05/08 11:08:23;;;;;;;5.72;3.47;;;;;;;26.62;32.07;95048.88;5044545;28;20029;-74
2023/05/08 11:11:00;;;;;;;4.35;3.47;;;;;;;27.03;32.00;95042.69;5045291;28;20037;-74
2023/05/08 11:13:35;;;;;;;5.85;4.00;;;;;;;27.35;31.25;95031.25;5044829;28;20412;-73
2023/05/08 11:16:00;;;;;;;5.70;3.80;;;;;;;27.72;30.95;95038.69;5045606;28;20037;-72
2023/05/08 11:18:27;;;;;;;3.42;2.97;;;;;;;27.74;29.19;95024.75;5045471;28;20423;-74
2023/05/08 11:21:03;;;;;;;5.50;2.80;;;;;;;27.72;29.41;95033.03;5043825;28;20028;-73
2023/05/08 11:23:30;;;;;;;3.65;3.08;;;;;;;28.01;28.47;95024.66;5044918;28;20021;-74
2023/05/08 11:26:01;;;;;;;5.05;2.97;;;;;;;28.11;28.92;95027.75;5043171;28;20116;-74
2023/05/08 11:28:27;;;;;;;6.22;3.70;;;;;;;27.90;29.00;95017.22;5044265;28;20454;-74
2023/05/08 11:30:56;;;;;;;4.43;3.30;;;;;;;28.02;28.81;95021.28;5043567;28;20044;-74
2023/05/08 11:33:22;;;;;;;4.80;3.30;;;;;;;28.31;27.92;95018.50;5043439;28;20025;-75
2023/05/08 11:36:15;;;;;;;3.80;3.35;;;;;;;28.54;28.52;95021.53;5043950;28;20033;-74
2023/05/08 11:38:42;;;;;;;4.43;3.13;;;;;;;28.66;28.35;95013.50;5043152;28;20438;-74